createdAt,value
2022-08-17T00:00:01.319Z,23.95
2022-08-17T00:02:28.280Z,23.63
2022-08-17T00:04:56.063Z,25.55
2022-08-17T00:07:23.103Z,24.45
2022-08-17T00:09:50.288Z,24.55
2022-08-17T00:12:43.534Z,24.93
2022-08-17T00:15:05.951Z,25.00
2022-08-17T00:17:37.373Z,24.80
2022-08-17T00:20:04.853Z,25.42
2022-08-17T00:22:36.406Z,25.17
2022-08-17T00:25:13.009Z,24.52
2022-08-17T00:27:40.121Z,25.50
2022-08-17T00:30:10.719Z,24.80
2022-08-17T00:33:13.839Z,25.17
2022-08-17T00:35:30.733Z,25.63
2022-08-17T00:37:57.698Z,24.90
2022-08-17T00:40:24.938Z,25.98
2022-08-17T00:42:53.365Z,24.02
2022-08-17T00:45:20.975Z,23.30
2022-08-17T00:47:48.476Z,24.83
2022-08-17T00:50:18.671Z,24.80
2022-08-17T00:52:54.757Z,25.15
2022-08-17T00:55:23.864Z,24.63
2022-08-17T00:57:55.497Z,24.43
2022-08-17T01:00:32.324Z,24.42
2022-08-17T01:03:10.128Z,24.67
2022-08-17T01:05:42.419Z,24.98
2022-08-17T01:08:11.975Z,23.77
2022-08-17T01:10:59.259Z,23.65
2022-08-17T01:13:40.681Z,24.40
2022-08-17T01:16:16.070Z,23.38
2022-08-17T01:18:45.841Z,22.38
2022-08-17T01:21:24.585Z,23.10
2022-08-17T01:23:51.861Z,23.83
2022-08-17T01:26:19.377Z,25.33
2022-08-17T01:28:55.030Z,26.13
2022-08-17T01:31:25.119Z,26.65
2022-08-17T01:33:52.154Z,28.80
2022-08-17T01:36:19.207Z,27.48
2022-08-17T01:38:46.210Z,26.85
2022-08-17T01:41:16.338Z,30.58
2022-08-17T01:44:00.993Z,38.53
2022-08-17T01:46:32.028Z,36.70
2022-08-17T01:48:59.422Z,37.38
2022-08-17T01:51:32.479Z,33.33
2022-08-17T01:54:05.240Z,31.67
2022-08-17T01:56:34.143Z,28.20
2022-08-17T01:59:01.427Z,28.97
2022-08-17T02:01:30.703Z,26.63
2022-08-17T02:04:01.102Z,28.67
2022-08-17T02:06:53.618Z,26.48
2022-08-17T02:09:25.520Z,24.77
2022-08-17T02:11:54.381Z,25.90
2022-08-17T02:14:22.686Z,20.25
2022-08-17T02:16:49.649Z,20.65
2022-08-17T02:19:17.500Z,19.88
2022-08-17T02:21:46.948Z,19.35
2022-08-17T02:24:59.869Z,16.90
2022-08-17T02:27:07.871Z,15.35
2022-08-17T02:29:34.909Z,12.88
2022-08-17T02:32:01.952Z,11.60
2022-08-17T02:34:30.021Z,11.13
2022-08-17T02:36:56.957Z,12.60
2022-08-17T02:39:24.048Z,12.70
2022-08-17T02:41:59.804Z,14.52
2022-08-17T02:44:39.280Z,19.55
2022-08-17T02:47:08.560Z,21.58
2022-08-17T02:49:35.700Z,23.60
2022-08-17T02:52:07.131Z,24.27
2022-08-17T02:54:41.206Z,24.13
2022-08-17T02:57:09.580Z,25.20
2022-08-17T02:59:36.686Z,26.35
2022-08-17T03:02:06.046Z,26.55
2022-08-17T03:04:35.267Z,28.08
2022-08-17T03:07:03.531Z,27.42
2022-08-17T03:09:30.759Z,26.90
2022-08-17T03:12:23.921Z,26.15
2022-08-17T03:14:50.790Z,25.38
2022-08-17T03:17:17.643Z,23.75
2022-08-17T03:19:44.941Z,21.85
2022-08-17T03:22:36.248Z,20.25
2022-08-17T03:24:58.907Z,21.40
2022-08-17T03:27:26.317Z,21.98
2022-08-17T03:29:53.677Z,23.03
2022-08-17T03:32:20.915Z,22.38
2022-08-17T03:34:47.984Z,21.50
2022-08-17T03:37:15.783Z,25.48
2022-08-17T03:39:43.053Z,25.67
2022-08-17T03:42:31.390Z,26.65
2022-08-17T03:45:00.415Z,23.27
2022-08-17T03:47:45.784Z,24.92
2022-08-17T03:50:32.517Z,24.15
2022-08-17T03:53:18.933Z,23.83
2022-08-17T03:56:04.724Z,25.98
2022-08-17T03:58:31.582Z,28.45
2022-08-17T04:00:58.599Z,30.88
2022-08-17T04:03:25.606Z,31.23
2022-08-17T04:05:52.475Z,31.50
2022-08-17T04:08:19.364Z,32.77
2022-08-17T04:10:46.521Z,33.35
2022-08-17T04:13:14.428Z,31.85
2022-08-17T04:15:41.426Z,34.28
2022-08-17T04:18:08.327Z,33.30
2022-08-17T04:20:38.027Z,33.35
2022-08-17T04:23:09.470Z,33.97
2022-08-17T04:25:41.821Z,32.97
2022-08-17T04:28:15.996Z,32.30
2022-08-17T04:30:45.196Z,31.83
2022-08-17T04:33:15.699Z,33.87
2022-08-17T04:35:51.008Z,31.73
2022-08-17T04:38:26.978Z,30.35
2022-08-17T04:41:13.307Z,27.45
2022-08-17T04:43:42.353Z,29.90
2022-08-17T04:46:15.868Z,29.33
2022-08-17T04:48:46.556Z,27.92
2022-08-17T04:51:23.742Z,27.73
2022-08-17T04:53:55.103Z,29.00
2022-08-17T04:56:23.976Z,28.85
2022-08-17T04:58:52.765Z,28.38
2022-08-17T05:01:23.824Z,26.92
2022-08-17T05:03:53.559Z,27.13
2022-08-17T05:06:21.111Z,25.73
2022-08-17T05:08:48.154Z,25.67
2022-08-17T05:11:15.828Z,26.27
2022-08-17T05:13:42.715Z,27.48
2022-08-17T05:16:09.731Z,25.70
2022-08-17T05:18:38.851Z,25.15
2022-08-17T05:21:06.963Z,25.10
2022-08-17T05:23:42.419Z,25.25
2022-08-17T05:26:26.350Z,25.00
2022-08-17T05:28:59.551Z,23.43
2022-08-17T05:31:28.806Z,23.23
2022-08-17T05:33:55.827Z,23.98
2022-08-17T05:36:43.149Z,22.48
2022-08-17T05:39:13.422Z,23.00
2022-08-17T05:41:44.360Z,21.83
2022-08-17T05:44:11.285Z,21.10
2022-08-17T05:46:41.627Z,22.70
2022-08-17T05:49:09.509Z,23.20
2022-08-17T05:52:03.746Z,23.07
2022-08-17T05:54:57.032Z,21.55
2022-08-17T05:58:00.123Z,20.95
2022-08-17T06:00:50.302Z,19.25
2022-08-17T06:03:45.086Z,18.40
2022-08-17T06:06:51.343Z,17.23
2022-08-17T06:09:33.869Z,17.85
2022-08-17T06:12:30.380Z,17.48
2022-08-17T06:15:19.513Z,15.68
2022-08-17T06:17:46.702Z,14.23
2022-08-17T06:20:16.055Z,13.73
2022-08-17T06:22:47.698Z,13.93
2022-08-17T06:25:39.009Z,12.32
2022-08-17T06:28:13.702Z,11.38
2022-08-17T06:30:59.560Z,11.20
2022-08-17T06:33:34.248Z,10.70
2022-08-17T06:36:10.140Z,11.68
2022-08-17T06:39:09.198Z,11.80
2022-08-17T06:42:07.189Z,11.65
2022-08-17T06:45:10.378Z,8.80
2022-08-17T06:47:59.291Z,9.20
2022-08-17T06:50:39.948Z,8.13
2022-08-17T06:53:29.340Z,8.60
2022-08-17T06:56:06.777Z,9.02
2022-08-17T06:58:35.783Z,8.88
2022-08-17T07:01:14.055Z,9.68
2022-08-17T07:03:56.560Z,9.55
2022-08-17T07:06:38.359Z,9.23
2022-08-17T07:09:28.170Z,8.90
2022-08-17T07:12:24.421Z,9.05
2022-08-17T07:15:05.494Z,9.80
2022-08-17T07:17:47.869Z,8.88
2022-08-17T07:20:20.485Z,8.88
2022-08-17T07:23:00.185Z,9.40
2022-08-17T07:25:28.591Z,8.80
2022-08-17T07:27:59.790Z,9.27
2022-08-17T07:30:47.058Z,9.38
2022-08-17T07:33:29.008Z,9.27
2022-08-17T07:35:58.087Z,9.00
2022-08-17T07:38:31.024Z,9.32
2022-08-17T07:40:58.218Z,9.10
2022-08-17T07:43:41.125Z,9.55
2022-08-17T07:46:37.677Z,9.02
2022-08-17T07:49:07.462Z,9.50
2022-08-17T07:51:43.941Z,9.63
2022-08-17T07:54:22.452Z,9.30
2022-08-17T07:56:54.935Z,10.10
2022-08-17T07:59:24.784Z,10.38
2022-08-17T08:01:58.121Z,10.77
2022-08-17T08:04:59.212Z,10.82
2022-08-17T08:07:26.745Z,11.27
2022-08-17T08:10:05.943Z,12.05
2022-08-17T08:12:37.716Z,11.60
2022-08-17T08:15:18.956Z,11.45
2022-08-17T08:17:57.600Z,12.70
2022-08-17T08:20:53.939Z,12.00
2022-08-17T08:23:41.150Z,12.13
2022-08-17T08:26:23.574Z,12.52
2022-08-17T08:29:01.344Z,12.48
2022-08-17T08:31:46.460Z,14.02
2022-08-17T08:34:53.164Z,13.17
2022-08-17T08:37:43.638Z,13.10
2022-08-17T08:40:18.669Z,12.90
2022-08-17T08:43:04.227Z,12.93
2022-08-17T08:45:59.799Z,12.95
2022-08-17T08:49:06.501Z,13.83
2022-08-17T08:51:46.518Z,13.75
2022-08-17T08:54:26.687Z,13.80
2022-08-17T08:57:34.019Z,14.67
2022-08-17T09:00:17.181Z,15.20
2022-08-17T09:03:06.193Z,15.38
2022-08-17T09:05:58.149Z,14.77
2022-08-17T09:08:37.146Z,14.63
2022-08-17T09:11:11.517Z,15.30
2022-08-17T09:13:54.682Z,13.02
2022-08-17T09:16:33.149Z,10.70
2022-08-17T09:19:18.835Z,9.88
2022-08-17T09:22:01.180Z,9.55
2022-08-17T09:24:49.221Z,10.15
2022-08-17T09:27:23.643Z,10.80
2022-08-17T09:30:08.480Z,9.95
2022-08-17T09:32:42.291Z,10.27
2022-08-17T09:35:20.503Z,9.38
2022-08-17T09:38:01.888Z,8.40
2022-08-17T09:40:44.646Z,9.07
2022-08-17T09:43:50.692Z,8.50
2022-08-17T09:46:22.521Z,8.88
2022-08-17T09:49:03.397Z,8.52
2022-08-17T09:51:30.407Z,8.25
2022-08-17T09:54:09.695Z,8.35
2022-08-17T09:57:05.902Z,8.25
2022-08-17T09:59:58.131Z,7.85
2022-08-17T10:02:34.223Z,8.38
2022-08-17T10:05:15.852Z,8.00
2022-08-17T10:07:52.358Z,7.40
2022-08-17T10:10:28.638Z,7.78
2022-08-17T10:13:10.879Z,8.00
2022-08-17T10:15:53.762Z,7.90
2022-08-17T10:18:31.926Z,8.20
2022-08-17T10:21:35.578Z,8.52
2022-08-17T10:25:21.761Z,7.70
2022-08-17T10:27:39.058Z,7.95
2022-08-17T10:30:08.184Z,8.45
2022-08-17T10:32:49.343Z,8.20
2022-08-17T10:35:34.666Z,8.33
2022-08-17T10:38:38.437Z,7.10
2022-08-17T10:41:27.354Z,8.10
2022-08-17T10:44:38.659Z,7.10
2022-08-17T10:47:07.062Z,7.07
2022-08-17T10:49:49.662Z,7.22
2022-08-17T10:52:42.642Z,7.40
2022-08-17T10:55:14.971Z,7.50
2022-08-17T10:57:50.244Z,6.65
2022-08-17T11:00:28.432Z,6.72
2022-08-17T11:02:57.522Z,6.35
2022-08-17T11:05:50.195Z,7.05
2022-08-17T11:08:41.473Z,6.90
2022-08-17T11:11:37.617Z,6.55
2022-08-17T11:14:29.392Z,6.93
2022-08-17T11:17:23.684Z,6.85
2022-08-17T11:20:09.389Z,8.32
2022-08-17T11:23:15.186Z,8.05
2022-08-17T11:26:08.581Z,8.30
2022-08-17T11:28:48.705Z,7.85
2022-08-17T11:31:38.403Z,8.00
2022-08-17T11:34:26.223Z,10.05
2022-08-17T11:37:30.899Z,9.70
2022-08-17T11:40:11.864Z,11.50
2022-08-17T11:42:50.168Z,12.00
2022-08-17T11:45:35.411Z,11.68
2022-08-17T11:48:45.680Z,11.02
2022-08-17T11:51:33.070Z,11.95
2022-08-17T11:56:59.802Z,13.00
2022-08-17T11:59:32.803Z,12.32
2022-08-17T12:02:02.320Z,12.50
2022-08-17T12:04:34.599Z,12.50
2022-08-17T12:07:16.843Z,14.43
2022-08-17T12:09:47.780Z,14.60
2022-08-17T12:12:19.363Z,14.95
2022-08-17T12:15:10.651Z,15.38
2022-08-17T12:17:40.355Z,16.23
2022-08-17T12:20:24.043Z,16.48
2022-08-17T12:23:16.991Z,16.20
2022-08-17T12:25:49.287Z,16.58
2022-08-17T12:28:27.161Z,16.33
2022-08-17T12:30:56.068Z,15.30
2022-08-17T12:33:27.943Z,17.63
2022-08-17T12:36:05.556Z,17.08
2022-08-17T12:38:37.966Z,17.80
2022-08-17T12:41:25.846Z,17.45
2022-08-17T12:44:20.871Z,18.05
2022-08-17T12:47:19.360Z,16.75
2022-08-17T12:49:51.545Z,18.70
2022-08-17T12:52:32.808Z,18.42
2022-08-17T12:55:13.007Z,19.15
2022-08-17T12:57:47.100Z,19.60
2022-08-17T13:00:33.129Z,19.48
2022-08-17T13:03:07.792Z,20.25
2022-08-17T13:05:37.423Z,19.25
2022-08-17T13:08:15.732Z,19.95
2022-08-17T13:10:42.805Z,21.57
2022-08-17T13:13:25.084Z,21.65
2022-08-17T13:16:05.631Z,21.30
2022-08-17T13:18:43.943Z,22.33
2022-08-17T13:21:20.011Z,22.10
2022-08-17T13:24:05.813Z,23.25
2022-08-17T13:26:42.119Z,22.13
2022-08-17T13:29:23.865Z,22.73
2022-08-17T13:32:13.754Z,23.00
2022-08-17T13:35:13.051Z,24.38
2022-08-17T13:37:34.745Z,25.55
2022-08-17T13:40:10.872Z,25.10
2022-08-17T13:42:51.843Z,24.55
2022-08-17T13:45:36.341Z,24.92
2022-08-17T13:48:13.626Z,24.10
2022-08-17T13:50:59.585Z,24.27
2022-08-17T13:53:36.876Z,26.10
2022-08-17T13:56:37.437Z,25.83
2022-08-17T13:59:13.879Z,28.75
2022-08-17T14:01:48.509Z,26.17
2022-08-17T14:04:27.981Z,27.00
2022-08-17T14:06:57.041Z,26.98
2022-08-17T14:09:36.832Z,24.97
2022-08-17T14:12:08.899Z,26.17
2022-08-17T14:14:36.387Z,25.48
2022-08-17T14:17:04.338Z,26.40
2022-08-17T14:19:31.380Z,27.70
2022-08-17T14:22:00.451Z,25.92
2022-08-17T14:24:33.707Z,27.67
2022-08-17T14:27:03.409Z,26.53
2022-08-17T14:29:33.270Z,26.50
2022-08-17T14:32:06.582Z,26.00
2022-08-17T14:34:33.591Z,25.52
2022-08-17T14:37:00.448Z,25.33
2022-08-17T14:39:28.759Z,27.27
2022-08-17T14:41:57.865Z,26.73
2022-08-17T14:44:24.949Z,25.20
2022-08-17T14:46:51.871Z,26.73
2022-08-17T14:49:20.652Z,24.25
2022-08-17T14:51:47.927Z,24.85
2022-08-17T14:54:29.433Z,24.30
2022-08-17T14:57:22.486Z,23.45
2022-08-17T14:59:54.245Z,23.88
2022-08-17T15:02:29.450Z,24.85
2022-08-17T15:05:03.957Z,24.08
2022-08-17T15:07:31.675Z,25.27
2022-08-17T15:10:02.454Z,25.95
2022-08-17T15:12:34.559Z,23.83
2022-08-17T15:15:06.223Z,24.90
2022-08-17T15:17:43.799Z,24.02
2022-08-17T15:20:28.472Z,23.90
2022-08-17T15:22:57.155Z,23.50
2022-08-17T15:25:26.239Z,25.05
2022-08-17T15:27:54.865Z,23.45
2022-08-17T15:30:22.537Z,23.35
2022-08-17T15:32:54.484Z,23.10
2022-08-17T15:35:27.416Z,23.45
2022-08-17T15:38:11.297Z,22.63
2022-08-17T15:40:42.765Z,22.65
2022-08-17T15:43:23.323Z,22.58
2022-08-17T15:46:12.270Z,21.90
2022-08-17T15:48:44.692Z,23.15
2022-08-17T15:51:15.057Z,23.15
2022-08-17T15:53:44.801Z,22.20
2022-08-17T15:56:13.647Z,23.77
2022-08-17T15:58:43.673Z,23.25
2022-08-17T16:01:16.764Z,23.33
2022-08-17T16:04:03.930Z,25.07
2022-08-17T16:06:32.432Z,22.65
2022-08-17T16:09:00.410Z,23.08
2022-08-17T16:11:27.304Z,22.90
2022-08-17T16:13:54.864Z,23.80
2022-08-17T16:16:23.625Z,22.92
2022-08-17T16:18:53.543Z,23.75
2022-08-17T16:21:25.760Z,23.50
2022-08-17T16:24:02.985Z,24.00
2022-08-17T16:26:31.827Z,22.75
2022-08-17T16:29:01.023Z,23.50
2022-08-17T16:31:28.101Z,24.35
2022-08-17T16:34:15.488Z,23.90
2022-08-17T16:36:55.795Z,24.63
2022-08-17T16:39:28.118Z,23.70
2022-08-17T16:41:56.302Z,23.30
2022-08-17T16:44:23.902Z,24.58
2022-08-17T16:46:51.108Z,24.92
2022-08-17T16:49:35.706Z,23.75
2022-08-17T16:52:05.312Z,24.15
2022-08-17T16:54:32.640Z,24.45
2022-08-17T16:56:59.528Z,24.02
2022-08-17T16:59:31.146Z,25.00
2022-08-17T17:02:15.701Z,25.92
2022-08-17T17:05:03.183Z,26.77
2022-08-17T17:07:37.733Z,28.27
2022-08-17T17:10:15.841Z,27.48
2022-08-17T17:13:03.756Z,27.67
2022-08-17T17:15:45.687Z,26.25
2022-08-17T17:18:15.281Z,26.95
2022-08-17T17:20:54.750Z,26.67
2022-08-17T17:23:34.950Z,26.35
2022-08-17T17:26:19.860Z,27.23
2022-08-17T17:28:56.240Z,25.93
2022-08-17T17:31:29.366Z,26.48
2022-08-17T17:34:00.531Z,25.67
2022-08-17T17:36:42.703Z,26.85
2022-08-17T17:39:43.757Z,26.70
2022-08-17T17:42:14.491Z,25.63
2022-08-17T17:45:09.620Z,26.25
2022-08-17T17:47:37.187Z,24.58
2022-08-17T17:50:07.573Z,24.30
2022-08-17T17:52:47.448Z,23.98
2022-08-17T17:55:37.393Z,23.48
2022-08-17T17:58:22.475Z,21.83
2022-08-17T18:01:01.091Z,24.52
2022-08-17T18:03:58.870Z,23.33
2022-08-17T18:07:12.337Z,23.07
2022-08-17T18:10:19.643Z,22.73
2022-08-17T18:13:35.438Z,23.13
2022-08-17T18:16:06.244Z,24.83
2022-08-17T18:18:39.035Z,25.58
2022-08-17T18:21:16.338Z,23.08
2022-08-17T18:23:59.778Z,24.85
2022-08-17T18:26:47.517Z,24.23
2022-08-17T18:29:32.203Z,23.80
2022-08-17T18:32:25.553Z,23.25
2022-08-17T18:35:18.010Z,22.97
2022-08-17T18:37:46.542Z,23.83
2022-08-17T18:40:19.693Z,23.57
2022-08-17T18:43:13.358Z,20.90
2022-08-17T18:45:45.957Z,20.17
2022-08-17T18:48:30.306Z,16.90
2022-08-17T18:51:40.770Z,16.50
2022-08-17T18:54:24.926Z,16.55
2022-08-17T18:57:02.032Z,16.48
2022-08-17T18:59:28.951Z,17.08
2022-08-17T19:02:27.241Z,16.40
2022-08-17T19:05:27.290Z,17.05
2022-08-17T19:07:54.818Z,17.03
2022-08-17T19:10:30.574Z,16.83
2022-08-17T19:13:31.239Z,16.58
2022-08-17T19:16:15.684Z,16.75
2022-08-17T19:18:56.052Z,16.27
2022-08-17T19:21:34.765Z,16.75
2022-08-17T19:24:29.972Z,18.92
2022-08-17T19:27:01.531Z,21.40
2022-08-17T19:29:38.830Z,21.92
2022-08-17T19:32:08.843Z,22.40
2022-08-17T19:34:37.615Z,21.00
2022-08-17T19:37:29.789Z,22.15
2022-08-17T19:40:41.884Z,19.98
2022-08-17T19:43:20.657Z,20.20
2022-08-17T19:46:07.728Z,20.60
2022-08-17T19:49:03.289Z,20.15
2022-08-17T19:52:06.573Z,17.85
2022-08-17T19:54:59.514Z,15.23
2022-08-17T19:57:50.613Z,13.93
2022-08-17T20:00:19.085Z,15.40
2022-08-17T20:03:06.179Z,16.42
2022-08-17T20:06:09.221Z,16.20
2022-08-17T20:08:40.054Z,18.10
2022-08-17T20:11:14.573Z,18.20
2022-08-17T20:13:49.011Z,17.25
2022-08-17T20:16:18.420Z,18.45
2022-08-17T20:19:02.796Z,18.00
2022-08-17T20:21:39.688Z,18.42
2022-08-17T20:24:20.159Z,17.77
2022-08-17T20:26:58.053Z,17.33
2022-08-17T20:29:39.971Z,17.17
2022-08-17T20:32:23.358Z,18.17
2022-08-17T20:35:19.366Z,16.85
2022-08-17T20:38:03.208Z,16.88
2022-08-17T20:40:35.232Z,16.05
2022-08-17T20:43:33.480Z,16.33
2022-08-17T20:46:03.505Z,16.77
2022-08-17T20:48:41.194Z,17.52
2022-08-17T20:52:01.475Z,17.10
2022-08-17T20:54:44.327Z,17.00
2022-08-17T20:57:33.299Z,17.95
2022-08-17T21:00:16.436Z,15.77
2022-08-17T21:03:12.145Z,15.32
2022-08-17T21:06:00.268Z,15.30
2022-08-17T21:08:34.303Z,15.98
2022-08-17T21:11:58.194Z,16.17
2022-08-17T21:14:31.621Z,17.20
2022-08-17T21:16:58.674Z,18.48
2022-08-17T21:20:09.815Z,19.03
2022-08-17T21:23:03.377Z,20.52
2022-08-17T21:25:57.687Z,19.95
2022-08-17T21:28:33.895Z,21.40
2022-08-17T21:31:09.078Z,21.35
2022-08-17T21:33:39.601Z,21.90
2022-08-17T21:36:12.325Z,20.73
2022-08-17T21:38:57.029Z,20.05
2022-08-17T21:41:45.539Z,20.48
2022-08-17T21:44:35.370Z,20.85
2022-08-17T21:47:20.417Z,17.67
2022-08-17T21:49:47.346Z,17.77
2022-08-17T21:52:17.784Z,18.73
2022-08-17T21:54:55.478Z,19.33
2022-08-17T21:57:27.539Z,18.40
2022-08-17T21:59:57.691Z,18.90
2022-08-17T22:02:29.549Z,19.90
2022-08-17T22:05:07.436Z,18.88
2022-08-17T22:07:36.580Z,17.20
2022-08-17T22:10:05.867Z,18.15
2022-08-17T22:12:32.779Z,18.65
2022-08-17T22:15:07.408Z,18.63
2022-08-17T22:17:37.880Z,18.45
2022-08-17T22:20:10.534Z,19.00
2022-08-17T22:23:18.134Z,18.80
2022-08-17T22:26:05.940Z,19.13
2022-08-17T22:28:42.322Z,18.77
2022-08-17T22:31:14.531Z,18.88
2022-08-17T22:33:41.578Z,18.75
2022-08-17T22:36:19.456Z,19.77
2022-08-17T22:38:49.977Z,19.00
2022-08-17T22:41:37.639Z,18.60
2022-08-17T22:44:24.176Z,18.02
2022-08-17T22:47:22.998Z,18.65
2022-08-17T22:49:57.853Z,18.08
2022-08-17T22:52:56.768Z,18.83
2022-08-17T22:55:43.219Z,18.00
2022-08-17T22:58:31.527Z,16.98
2022-08-17T23:01:32.625Z,16.55
2022-08-17T23:04:03.079Z,16.85
2022-08-17T23:06:33.850Z,17.42
2022-08-17T23:09:03.962Z,17.27
2022-08-17T23:11:49.547Z,17.57
2022-08-17T23:14:21.507Z,18.20
2022-08-17T23:16:53.084Z,17.08
2022-08-17T23:19:21.888Z,18.15
2022-08-17T23:21:51.006Z,18.30
2022-08-17T23:24:23.219Z,17.38
2022-08-17T23:26:50.305Z,17.17
2022-08-17T23:29:17.201Z,18.55
2022-08-17T23:31:44.118Z,18.77
2022-08-17T23:34:13.970Z,19.45
2022-08-17T23:36:42.059Z,20.55
2022-08-17T23:39:08.980Z,21.55
2022-08-17T23:41:39.971Z,23.10
2022-08-17T23:44:07.399Z,22.70
2022-08-17T23:46:34.821Z,23.35
2022-08-17T23:49:01.788Z,23.45
2022-08-17T23:51:38.198Z,24.35
2022-08-17T23:54:26.633Z,23.20
2022-08-17T23:56:53.688Z,21.08
2022-08-17T23:59:22.690Z,20.73
